Terminal Aerodrome Forecast
Issued by NWS

Home | Current Version | Previous Version | Text Only | Print | Product List | Glossary On
Versions: 1 2 3 4 5 6 7 8 9 10 11 12 13 14 15 16 17 18 19 20 21 22 23
000
FTUS45 KTFX 261142
TAFCTB
TAF
KCTB 261142Z 2612/2712 07007KT 4SM BR SCT005 BKN010
      TEMPO 2612/2615 1SM BR BKN002
     FM261500 21008KT P6SM SCT010 BKN030
     FM262000 22008KT P6SM -SHRA BKN040
     FM262300 32010KT P6SM -SHRA OVC025=

USA.gov is the U.S. government's official web portal to all federal, state and local government web resources and services.